sensor_id;sensor_type;location;lat;lon;timestamp;temperature;humidity
71177;DHT22;58877;51.992;4.504;2022-08-03T00:01:34;21.91;73.76
71177;DHT22;58877;51.992;4.504;2022-08-03T00:03:59;21.84;74.07
71177;DHT22;58877;51.992;4.504;2022-08-03T00:06:25;21.84;74.18
71177;DHT22;58877;51.992;4.504;2022-08-03T00:08:51;21.75;74.51
71177;DHT22;58877;51.992;4.504;2022-08-03T00:11:16;21.75;74.57
71177;DHT22;58877;51.992;4.504;2022-08-03T00:13:42;21.82;74.53
71177;DHT22;58877;51.992;4.504;2022-08-03T00:16:08;21.71;74.84
71177;DHT22;58877;51.992;4.504;2022-08-03T00:18:36;21.68;74.96
71177;DHT22;58877;51.992;4.504;2022-08-03T00:21:02;21.77;74.92
71177;DHT22;58877;51.992;4.504;2022-08-03T00:23:29;21.82;74.65
71177;DHT22;58877;51.992;4.504;2022-08-03T00:25:55;21.73;74.88
71177;DHT22;58877;51.992;4.504;2022-08-03T00:28:21;21.68;75.28
71177;DHT22;58877;51.992;4.504;2022-08-03T00:30:47;21.73;75.10
71177;DHT22;58877;51.992;4.504;2022-08-03T00:33:13;21.59;75.42
71177;DHT22;58877;51.992;4.504;2022-08-03T00:35:38;21.57;75.59
71177;DHT22;58877;51.992;4.504;2022-08-03T00:38:04;21.59;75.64
71177;DHT22;58877;51.992;4.504;2022-08-03T00:40:30;21.62;75.63
71177;DHT22;58877;51.992;4.504;2022-08-03T00:42:58;21.62;75.59
71177;DHT22;58877;51.992;4.504;2022-08-03T00:45:27;21.69;75.35
71177;DHT22;58877;51.992;4.504;2022-08-03T00:47:53;21.82;74.98
71177;DHT22;58877;51.992;4.504;2022-08-03T00:50:21;21.77;75.06
71177;DHT22;58877;51.992;4.504;2022-08-03T00:52:48;21.77;75.14
71177;DHT22;58877;51.992;4.504;2022-08-03T00:55:14;21.81;75.02
71177;DHT22;58877;51.992;4.504;2022-08-03T00:57:42;21.78;75.06
71177;DHT22;58877;51.992;4.504;2022-08-03T01:00:10;21.74;75.35
71177;DHT22;58877;51.992;4.504;2022-08-03T01:02:38;21.69;75.75
71177;DHT22;58877;51.992;4.504;2022-08-03T01:05:04;21.77;75.18
71177;DHT22;58877;51.992;4.504;2022-08-03T01:07:40;21.59;75.74
71177;DHT22;58877;51.992;4.504;2022-08-03T01:18:45;21.73;75.64
71177;DHT22;58877;51.992;4.504;2022-08-03T01:22:31;21.74;75.54
71177;DHT22;58877;51.992;4.504;2022-08-03T01:32:24;21.62;76.01
71177;DHT22;58877;51.992;4.504;2022-08-03T01:35:11;21.59;76.03
71177;DHT22;58877;51.992;4.504;2022-08-03T01:37:53;21.67;75.65
71177;DHT22;58877;51.992;4.504;2022-08-03T01:40:23;21.61;75.92
71177;DHT22;58877;51.992;4.504;2022-08-03T01:42:51;21.45;76.47
71177;DHT22;58877;51.992;4.504;2022-08-03T01:45:20;21.44;76.52
71177;DHT22;58877;51.992;4.504;2022-08-03T01:47:48;21.43;76.63
71177;DHT22;58877;51.992;4.504;2022-08-03T01:50:20;21.44;76.62
71177;DHT22;58877;51.992;4.504;2022-08-03T01:52:47;21.38;76.99
71177;DHT22;58877;51.992;4.504;2022-08-03T01:55:17;21.31;77.04
71177;DHT22;58877;51.992;4.504;2022-08-03T01:57:45;21.34;77.11
71177;DHT22;58877;51.992;4.504;2022-08-03T02:00:13;21.35;77.10
71177;DHT22;58877;51.992;4.504;2022-08-03T02:02:41;21.44;76.56
71177;DHT22;58877;51.992;4.504;2022-08-03T02:05:10;21.34;76.86
71177;DHT22;58877;51.992;4.504;2022-08-03T02:07:39;21.33;77.18
71177;DHT22;58877;51.992;4.504;2022-08-03T02:10:06;21.28;77.32
71177;DHT22;58877;51.992;4.504;2022-08-03T02:12:35;21.22;77.36
71177;DHT22;58877;51.992;4.504;2022-08-03T02:15:03;21.20;77.62
71177;DHT22;58877;51.992;4.504;2022-08-03T02:17:31;21.14;77.69
71177;DHT22;58877;51.992;4.504;2022-08-03T02:19:59;21.19;77.58
71177;DHT22;58877;51.992;4.504;2022-08-03T02:22:27;21.10;77.72
71177;DHT22;58877;51.992;4.504;2022-08-03T02:24:53;21.10;77.73
71177;DHT22;58877;51.992;4.504;2022-08-03T02:27:22;21.10;77.71
71177;DHT22;58877;51.992;4.504;2022-08-03T02:30:03;21.08;77.66
71177;DHT22;58877;51.992;4.504;2022-08-03T02:32:33;21.08;77.68
71177;DHT22;58877;51.992;4.504;2022-08-03T02:35:03;21.06;77.78
71177;DHT22;58877;51.992;4.504;2022-08-03T02:37:34;21.02;77.63
71177;DHT22;58877;51.992;4.504;2022-08-03T02:40:03;21.03;77.85
71177;DHT22;58877;51.992;4.504;2022-08-03T02:42:34;21.02;77.92
71177;DHT22;58877;51.992;4.504;2022-08-03T02:45:04;21.03;77.89
71177;DHT22;58877;51.992;4.504;2022-08-03T02:47:31;20.96;78.02
71177;DHT22;58877;51.992;4.504;2022-08-03T02:50:02;20.93;78.11
71177;DHT22;58877;51.992;4.504;2022-08-03T02:52:34;20.94;78.17
71177;DHT22;58877;51.992;4.504;2022-08-03T02:55:02;20.86;78.35
71177;DHT22;58877;51.992;4.504;2022-08-03T02:57:30;20.84;78.49
71177;DHT22;58877;51.992;4.504;2022-08-03T02:59:59;20.73;78.84
71177;DHT22;58877;51.992;4.504;2022-08-03T03:02:27;20.66;79.07
71177;DHT22;58877;51.992;4.504;2022-08-03T03:04:54;20.69;79.11
71177;DHT22;58877;51.992;4.504;2022-08-03T03:07:20;20.70;79.05
71177;DHT22;58877;51.992;4.504;2022-08-03T03:09:47;20.66;79.18
71177;DHT22;58877;51.992;4.504;2022-08-03T03:12:14;20.65;79.24
71177;DHT22;58877;51.992;4.504;2022-08-03T03:14:40;20.63;79.28
71177;DHT22;58877;51.992;4.504;2022-08-03T03:17:08;20.66;79.06
71177;DHT22;58877;51.992;4.504;2022-08-03T03:19:38;20.66;79.07
71177;DHT22;58877;51.992;4.504;2022-08-03T03:22:06;20.69;79.00
71177;DHT22;58877;51.992;4.504;2022-08-03T03:24:34;20.68;78.75
71177;DHT22;58877;51.992;4.504;2022-08-03T03:27:02;20.68;78.81
71177;DHT22;58877;51.992;4.504;2022-08-03T03:29:28;20.62;78.96
71177;DHT22;58877;51.992;4.504;2022-08-03T03:31:57;20.60;79.09
71177;DHT22;58877;51.992;4.504;2022-08-03T03:34:23;20.62;78.96
71177;DHT22;58877;51.992;4.504;2022-08-03T03:36:48;20.62;79.00
71177;DHT22;58877;51.992;4.504;2022-08-03T03:39:14;20.59;79.13
71177;DHT22;58877;51.992;4.504;2022-08-03T03:41:40;20.53;79.26
71177;DHT22;58877;51.992;4.504;2022-08-03T03:44:06;20.46;79.41
71177;DHT22;58877;51.992;4.504;2022-08-03T03:46:31;20.45;79.61
71177;DHT22;58877;51.992;4.504;2022-08-03T03:51:25;20.46;79.64
71177;DHT22;58877;51.992;4.504;2022-08-03T03:53:58;20.43;79.74
71177;DHT22;58877;51.992;4.504;2022-08-03T03:56:24;20.49;79.43
71177;DHT22;58877;51.992;4.504;2022-08-03T03:58:50;20.49;79.66
71177;DHT22;58877;51.992;4.504;2022-08-03T04:01:16;20.45;79.79
71177;DHT22;58877;51.992;4.504;2022-08-03T04:03:41;20.36;80.04
71177;DHT22;58877;51.992;4.504;2022-08-03T04:06:07;20.38;80.04
71177;DHT22;58877;51.992;4.504;2022-08-03T04:08:51;20.35;80.12
71177;DHT22;58877;51.992;4.504;2022-08-03T04:11:38;20.36;80.24
71177;DHT22;58877;51.992;4.504;2022-08-03T04:14:09;20.36;80.18
71177;DHT22;58877;51.992;4.504;2022-08-03T04:16:39;20.43;80.04
71177;DHT22;58877;51.992;4.504;2022-08-03T04:19:13;20.46;79.97
71177;DHT22;58877;51.992;4.504;2022-08-03T04:21:43;20.36;80.11
71177;DHT22;58877;51.992;4.504;2022-08-03T04:24:13;20.35;80.22
71177;DHT22;58877;51.992;4.504;2022-08-03T04:26:42;20.35;80.31
71177;DHT22;58877;51.992;4.504;2022-08-03T04:29:11;20.32;80.45
71177;DHT22;58877;51.992;4.504;2022-08-03T04:31:38;20.33;80.42
71177;DHT22;58877;51.992;4.504;2022-08-03T04:34:06;20.32;80.56
71177;DHT22;58877;51.992;4.504;2022-08-03T04:36:37;20.35;80.48
71177;DHT22;58877;51.992;4.504;2022-08-03T04:39:09;20.35;80.41
71177;DHT22;58877;51.992;4.504;2022-08-03T04:41:38;20.35;80.46
71177;DHT22;58877;51.992;4.504;2022-08-03T04:44:06;20.39;80.49
71177;DHT22;58877;51.992;4.504;2022-08-03T04:46:37;20.38;80.38
71177;DHT22;58877;51.992;4.504;2022-08-03T04:49:04;20.38;80.44
71177;DHT22;58877;51.992;4.504;2022-08-03T04:51:31;20.42;80.32
71177;DHT22;58877;51.992;4.504;2022-08-03T04:53:59;20.40;80.24
71177;DHT22;58877;51.992;4.504;2022-08-03T04:56:25;20.40;80.27
71177;DHT22;58877;51.992;4.504;2022-08-03T04:58:51;20.46;80.23
71177;DHT22;58877;51.992;4.504;2022-08-03T05:01:17;20.53;80.14
71177;DHT22;58877;51.992;4.504;2022-08-03T05:03:45;20.52;80.18
71177;DHT22;58877;51.992;4.504;2022-08-03T05:06:11;20.52;80.03
71177;DHT22;58877;51.992;4.504;2022-08-03T05:08:37;20.53;79.99
71177;DHT22;58877;51.992;4.504;2022-08-03T05:11:03;20.59;80.08
71177;DHT22;58877;51.992;4.504;2022-08-03T05:13:28;20.65;79.93
71177;DHT22;58877;51.992;4.504;2022-08-03T05:15:54;20.79;79.79
71177;DHT22;58877;51.992;4.504;2022-08-03T05:18:20;20.86;79.40
71177;DHT22;58877;51.992;4.504;2022-08-03T05:20:45;20.89;79.31
71177;DHT22;58877;51.992;4.504;2022-08-03T05:23:11;21.14;78.64
71177;DHT22;58877;51.992;4.504;2022-08-03T05:25:37;21.22;78.31
71177;DHT22;58877;51.992;4.504;2022-08-03T05:28:02;21.34;78.01
71177;DHT22;58877;51.992;4.504;2022-08-03T05:30:28;21.45;77.72
71177;DHT22;58877;51.992;4.504;2022-08-03T05:32:54;21.57;77.50
71177;DHT22;58877;51.992;4.504;2022-08-03T05:35:19;21.64;77.21
71177;DHT22;58877;51.992;4.504;2022-08-03T05:37:45;21.68;77.22
71177;DHT22;58877;51.992;4.504;2022-08-03T05:40:11;21.77;76.82
71177;DHT22;58877;51.992;4.504;2022-08-03T05:42:37;21.88;76.56
71177;DHT22;58877;51.992;4.504;2022-08-03T05:45:03;22.05;76.17
71177;DHT22;58877;51.992;4.504;2022-08-03T05:47:37;22.13;75.30
71177;DHT22;58877;51.992;4.504;2022-08-03T05:50:03;22.09;75.32
71177;DHT22;58877;51.992;4.504;2022-08-03T05:52:28;21.98;75.86
71177;DHT22;58877;51.992;4.504;2022-08-03T05:54:54;21.97;76.01
71177;DHT22;58877;51.992;4.504;2022-08-03T05:57:20;21.88;76.15
71177;DHT22;58877;51.992;4.504;2022-08-03T05:59:45;21.84;76.24
71177;DHT22;58877;51.992;4.504;2022-08-03T06:02:11;21.61;76.95
71177;DHT22;58877;51.992;4.504;2022-08-03T06:04:36;21.58;77.44
71177;DHT22;58877;51.992;4.504;2022-08-03T06:07:02;21.79;76.89
71177;DHT22;58877;51.992;4.504;2022-08-03T06:09:27;21.71;76.63
71177;DHT22;58877;51.992;4.504;2022-08-03T06:11:54;21.68;76.63
71177;DHT22;58877;51.992;4.504;2022-08-03T06:14:19;21.50;77.34
71177;DHT22;58877;51.992;4.504;2022-08-03T06:16:44;21.53;77.25
71177;DHT22;58877;51.992;4.504;2022-08-03T06:19:10;21.55;77.27
71177;DHT22;58877;51.992;4.504;2022-08-03T06:21:35;21.41;77.47
71177;DHT22;58877;51.992;4.504;2022-08-03T06:24:01;21.28;77.74
71177;DHT22;58877;51.992;4.504;2022-08-03T06:26:26;21.11;78.54
71177;DHT22;58877;51.992;4.504;2022-08-03T06:28:52;21.14;78.31
71177;DHT22;58877;51.992;4.504;2022-08-03T06:31:20;21.19;78.39
71177;DHT22;58877;51.992;4.504;2022-08-03T06:33:45;21.27;78.18
71177;DHT22;58877;51.992;4.504;2022-08-03T06:36:11;21.16;78.37
71177;DHT22;58877;51.992;4.504;2022-08-03T06:38:36;21.35;77.99
71177;DHT22;58877;51.992;4.504;2022-08-03T06:41:02;21.61;77.22
71177;DHT22;58877;51.992;4.504;2022-08-03T06:43:27;21.31;77.49
71177;DHT22;58877;51.992;4.504;2022-08-03T06:45:53;21.44;77.42
71177;DHT22;58877;51.992;4.504;2022-08-03T06:48:18;21.30;77.86
71177;DHT22;58877;51.992;4.504;2022-08-03T06:50:43;21.37;77.73
71177;DHT22;58877;51.992;4.504;2022-08-03T06:53:09;21.71;76.82
71177;DHT22;58877;51.992;4.504;2022-08-03T06:55:35;22.12;75.94
71177;DHT22;58877;51.992;4.504;2022-08-03T06:58:00;22.23;74.72
71177;DHT22;58877;51.992;4.504;2022-08-03T07:00:26;22.38;74.00
71177;DHT22;58877;51.992;4.504;2022-08-03T07:02:53;22.23;74.42
71177;DHT22;58877;51.992;4.504;2022-08-03T07:05:18;22.31;74.27
71177;DHT22;58877;51.992;4.504;2022-08-03T07:07:45;22.23;74.38
71177;DHT22;58877;51.992;4.504;2022-08-03T07:10:11;22.41;73.86
71177;DHT22;58877;51.992;4.504;2022-08-03T07:12:37;22.33;74.34
71177;DHT22;58877;51.992;4.504;2022-08-03T07:15:04;22.25;73.70
71177;DHT22;58877;51.992;4.504;2022-08-03T07:17:34;22.25;74.54
71177;DHT22;58877;51.992;4.504;2022-08-03T07:20:02;22.33;74.07
71177;DHT22;58877;51.992;4.504;2022-08-03T07:22:32;22.39;73.65
71177;DHT22;58877;51.992;4.504;2022-08-03T07:24:58;22.42;73.59
71177;DHT22;58877;51.992;4.504;2022-08-03T07:27:24;21.98;74.68
71177;DHT22;58877;51.992;4.504;2022-08-03T07:29:55;22.02;74.59
71177;DHT22;58877;51.992;4.504;2022-08-03T07:32:21;22.02;74.73
71177;DHT22;58877;51.992;4.504;2022-08-03T07:34:47;22.08;74.65
71177;DHT22;58877;51.992;4.504;2022-08-03T07:37:12;22.12;74.19
71177;DHT22;58877;51.992;4.504;2022-08-03T07:39:38;21.59;75.55
71177;DHT22;58877;51.992;4.504;2022-08-03T07:42:03;21.79;75.68
71177;DHT22;58877;51.992;4.504;2022-08-03T07:44:29;21.97;74.76
71177;DHT22;58877;51.992;4.504;2022-08-03T07:46:55;22.06;73.86
71177;DHT22;58877;51.992;4.504;2022-08-03T07:49:21;22.39;73.93
71177;DHT22;58877;51.992;4.504;2022-08-03T07:51:47;22.83;72.04
71177;DHT22;58877;51.992;4.504;2022-08-03T07:54:32;23.14;70.35
71177;DHT22;58877;51.992;4.504;2022-08-03T07:56:58;23.53;69.73
71177;DHT22;58877;51.992;4.504;2022-08-03T07:59:23;23.67;69.68
71177;DHT22;58877;51.992;4.504;2022-08-03T08:01:48;23.98;68.18
71177;DHT22;58877;51.992;4.504;2022-08-03T08:04:17;23.23;70.28
71177;DHT22;58877;51.992;4.504;2022-08-03T08:06:42;22.73;71.88
71177;DHT22;58877;51.992;4.504;2022-08-03T08:09:08;22.99;71.67
71177;DHT22;58877;51.992;4.504;2022-08-03T08:11:33;22.96;70.94
71177;DHT22;58877;51.992;4.504;2022-08-03T08:14:02;22.53;72.17
71177;DHT22;58877;51.992;4.504;2022-08-03T08:16:28;22.26;73.24
71177;DHT22;58877;51.992;4.504;2022-08-03T08:18:56;22.90;71.91
71177;DHT22;58877;51.992;4.504;2022-08-03T08:21:29;23.26;70.48
71177;DHT22;58877;51.992;4.504;2022-08-03T08:23:55;23.75;69.59
71177;DHT22;58877;51.992;4.504;2022-08-03T08:26:20;24.39;67.90
71177;DHT22;58877;51.992;4.504;2022-08-03T08:28:46;24.69;65.92
71177;DHT22;58877;51.992;4.504;2022-08-03T08:31:12;24.96;65.12
71177;DHT22;58877;51.992;4.504;2022-08-03T08:33:38;25.23;63.78
71177;DHT22;58877;51.992;4.504;2022-08-03T08:36:03;24.53;65.73
71177;DHT22;58877;51.992;4.504;2022-08-03T08:38:29;24.40;66.30
71177;DHT22;58877;51.992;4.504;2022-08-03T08:40:55;24.01;68.04
71177;DHT22;58877;51.992;4.504;2022-08-03T08:43:21;23.28;70.18
71177;DHT22;58877;51.992;4.504;2022-08-03T08:46:11;23.59;69.15
71177;DHT22;58877;51.992;4.504;2022-08-03T08:49:02;23.89;68.76
71177;DHT22;58877;51.992;4.504;2022-08-03T08:51:30;24.43;67.37
71177;DHT22;58877;51.992;4.504;2022-08-03T08:54:01;24.96;65.47
71177;DHT22;58877;51.992;4.504;2022-08-03T08:56:30;24.42;66.65
71177;DHT22;58877;51.992;4.504;2022-08-03T08:59:00;24.82;65.15
71177;DHT22;58877;51.992;4.504;2022-08-03T09:01:26;24.79;64.79
71177;DHT22;58877;51.992;4.504;2022-08-03T09:03:52;24.40;66.34
71177;DHT22;58877;51.992;4.504;2022-08-03T09:06:27;24.83;65.04
71177;DHT22;58877;51.992;4.504;2022-08-03T09:08:56;24.73;65.04
71177;DHT22;58877;51.992;4.504;2022-08-03T09:11:22;24.67;65.47
71177;DHT22;58877;51.992;4.504;2022-08-03T09:13:49;25.13;64.83
71177;DHT22;58877;51.992;4.504;2022-08-03T09:16:18;25.45;63.37
71177;DHT22;58877;51.992;4.504;2022-08-03T09:18:47;25.84;62.44
71177;DHT22;58877;51.992;4.504;2022-08-03T09:23:49;24.30;65.68
71177;DHT22;58877;51.992;4.504;2022-08-03T09:26:24;24.51;65.86
71177;DHT22;58877;51.992;4.504;2022-08-03T09:31:44;24.05;66.87
71177;DHT22;58877;51.992;4.504;2022-08-03T09:34:12;24.37;66.82
71177;DHT22;58877;51.992;4.504;2022-08-03T09:36:46;24.59;65.11
71177;DHT22;58877;51.992;4.504;2022-08-03T09:39:22;24.82;64.39
71177;DHT22;58877;51.992;4.504;2022-08-03T09:42:13;24.88;64.49
71177;DHT22;58877;51.992;4.504;2022-08-03T09:44:44;25.39;63.07
71177;DHT22;58877;51.992;4.504;2022-08-03T09:47:12;25.44;62.43
71177;DHT22;58877;51.992;4.504;2022-08-03T09:49:40;24.84;64.48
71177;DHT22;58877;51.992;4.504;2022-08-03T09:52:18;25.03;63.41
71177;DHT22;58877;51.992;4.504;2022-08-03T09:54:50;24.80;64.40
71177;DHT22;58877;51.992;4.504;2022-08-03T09:57:23;25.20;63.83
71177;DHT22;58877;51.992;4.504;2022-08-03T09:59:50;25.54;62.62
71177;DHT22;58877;51.992;4.504;2022-08-03T10:02:21;25.81;61.71
71177;DHT22;58877;51.992;4.504;2022-08-03T10:04:48;25.95;60.75
71177;DHT22;58877;51.992;4.504;2022-08-03T10:07:18;25.96;60.34
71177;DHT22;58877;51.992;4.504;2022-08-03T10:10:01;26.09;59.51
71177;DHT22;58877;51.992;4.504;2022-08-03T10:12:28;25.64;61.18
71177;DHT22;58877;51.992;4.504;2022-08-03T10:14:54;25.68;61.44
71177;DHT22;58877;51.992;4.504;2022-08-03T10:17:21;26.05;60.48
71177;DHT22;58877;51.992;4.504;2022-08-03T10:19:48;26.05;60.21
71177;DHT22;58877;51.992;4.504;2022-08-03T10:22:31;26.32;60.02
71177;DHT22;58877;51.992;4.504;2022-08-03T10:25:05;26.52;59.63
71177;DHT22;58877;51.992;4.504;2022-08-03T10:27:37;26.49;59.26
71177;DHT22;58877;51.992;4.504;2022-08-03T10:30:06;26.64;58.76
71177;DHT22;58877;51.992;4.504;2022-08-03T10:32:54;26.79;58.62
71177;DHT22;58877;51.992;4.504;2022-08-03T10:35:22;26.59;58.18
71177;DHT22;58877;51.992;4.504;2022-08-03T10:37:54;26.35;58.66
71177;DHT22;58877;51.992;4.504;2022-08-03T10:40:22;26.59;58.02
71177;DHT22;58877;51.992;4.504;2022-08-03T10:42:50;26.61;59.38
71177;DHT22;58877;51.992;4.504;2022-08-03T10:45:23;26.11;58.92
71177;DHT22;58877;51.992;4.504;2022-08-03T10:47:51;26.44;57.88
71177;DHT22;58877;51.992;4.504;2022-08-03T10:50:18;26.73;57.30
71177;DHT22;58877;51.992;4.504;2022-08-03T10:52:57;26.53;57.35
71177;DHT22;58877;51.992;4.504;2022-08-03T10:55:36;26.56;58.90
71177;DHT22;58877;51.992;4.504;2022-08-03T11:01:10;27.33;56.39
71177;DHT22;58877;51.992;4.504;2022-08-03T11:06:22;27.34;55.04
71177;DHT22;58877;51.992;4.504;2022-08-03T11:11:38;27.52;54.94
71177;DHT22;58877;51.992;4.504;2022-08-03T11:14:18;27.75;54.43
71177;DHT22;58877;51.992;4.504;2022-08-03T11:16:49;27.24;55.07
71177;DHT22;58877;51.992;4.504;2022-08-03T11:19:17;27.28;54.60
71177;DHT22;58877;51.992;4.504;2022-08-03T11:35:13;27.06;54.62
71177;DHT22;58877;51.992;4.504;2022-08-03T11:40:47;26.88;55.49
71177;DHT22;58877;51.992;4.504;2022-08-03T11:46:23;27.27;54.01
71177;DHT22;58877;51.992;4.504;2022-08-03T11:48:50;27.62;53.81
71177;DHT22;58877;51.992;4.504;2022-08-03T11:53:59;28.36;52.05
71177;DHT22;58877;51.992;4.504;2022-08-03T11:56:26;28.17;51.45
71177;DHT22;58877;51.992;4.504;2022-08-03T11:58:55;28.33;51.40
71177;DHT22;58877;51.992;4.504;2022-08-03T12:01:22;28.35;49.61
71177;DHT22;58877;51.992;4.504;2022-08-03T12:03:49;27.59;52.12
71177;DHT22;58877;51.992;4.504;2022-08-03T12:06:17;27.71;52.60
71177;DHT22;58877;51.992;4.504;2022-08-03T12:08:43;27.58;53.72
71177;DHT22;58877;51.992;4.504;2022-08-03T12:11:11;27.98;52.91
71177;DHT22;58877;51.992;4.504;2022-08-03T12:13:46;28.33;52.06
71177;DHT22;58877;51.992;4.504;2022-08-03T12:16:24;28.59;50.96
71177;DHT22;58877;51.992;4.504;2022-08-03T12:18:54;28.67;50.24
71177;DHT22;58877;51.992;4.504;2022-08-03T12:21:21;28.87;50.04
71177;DHT22;58877;51.992;4.504;2022-08-03T12:23:49;29.15;48.59
71177;DHT22;58877;51.992;4.504;2022-08-03T12:26:14;28.68;49.09
71177;DHT22;58877;51.992;4.504;2022-08-03T12:28:46;28.76;50.31
71177;DHT22;58877;51.992;4.504;2022-08-03T12:31:12;28.87;49.22
71177;DHT22;58877;51.992;4.504;2022-08-03T12:34:02;28.60;49.51
71177;DHT22;58877;51.992;4.504;2022-08-03T12:36:31;29.03;48.71
71177;DHT22;58877;51.992;4.504;2022-08-03T12:39:06;29.41;47.65
71177;DHT22;58877;51.992;4.504;2022-08-03T12:41:38;29.66;47.42
71177;DHT22;58877;51.992;4.504;2022-08-03T12:44:06;29.86;46.36
71177;DHT22;58877;51.992;4.504;2022-08-03T12:46:37;29.37;47.82
71177;DHT22;58877;51.992;4.504;2022-08-03T12:54:15;29.42;47.99
71177;DHT22;58877;51.992;4.504;2022-08-03T12:57:02;28.93;48.37
71177;DHT22;58877;51.992;4.504;2022-08-03T12:59:33;28.90;49.06
71177;DHT22;58877;51.992;4.504;2022-08-03T13:02:03;29.44;48.46
71177;DHT22;58877;51.992;4.504;2022-08-03T13:04:34;30.01;46.68
71177;DHT22;58877;51.992;4.504;2022-08-03T13:07:05;30.40;45.60
71177;DHT22;58877;51.992;4.504;2022-08-03T13:09:54;29.92;46.74
71177;DHT22;58877;51.992;4.504;2022-08-03T13:14:49;29.88;47.46
71177;DHT22;58877;51.992;4.504;2022-08-03T13:17:15;30.13;47.08
71177;DHT22;58877;51.992;4.504;2022-08-03T13:19:44;30.15;46.06
71177;DHT22;58877;51.992;4.504;2022-08-03T13:22:22;29.31;47.47
71177;DHT22;58877;51.992;4.504;2022-08-03T13:24:55;29.04;48.55
71177;DHT22;58877;51.992;4.504;2022-08-03T13:27:22;29.39;47.28
71177;DHT22;58877;51.992;4.504;2022-08-03T13:29:48;29.25;47.93
71177;DHT22;58877;51.992;4.504;2022-08-03T13:32:14;29.65;47.33
71177;DHT22;58877;51.992;4.504;2022-08-03T13:34:39;29.34;48.69
71177;DHT22;58877;51.992;4.504;2022-08-03T13:37:39;29.04;48.47
71177;DHT22;58877;51.992;4.504;2022-08-03T13:40:06;28.78;49.64
71177;DHT22;58877;51.992;4.504;2022-08-03T13:42:34;28.74;50.12
71177;DHT22;58877;51.992;4.504;2022-08-03T13:45:00;28.78;50.26
71177;DHT22;58877;51.992;4.504;2022-08-03T13:47:26;28.96;49.48
71177;DHT22;58877;51.992;4.504;2022-08-03T13:49:52;28.90;49.44
71177;DHT22;58877;51.992;4.504;2022-08-03T13:52:18;28.90;49.59
71177;DHT22;58877;51.992;4.504;2022-08-03T13:54:44;29.34;48.42
71177;DHT22;58877;51.992;4.504;2022-08-03T13:57:10;29.44;47.62
71177;DHT22;58877;51.992;4.504;2022-08-03T13:59:41;29.17;48.05
71177;DHT22;58877;51.992;4.504;2022-08-03T14:02:08;29.45;47.62
71177;DHT22;58877;51.992;4.504;2022-08-03T14:04:36;29.59;47.36
71177;DHT22;58877;51.992;4.504;2022-08-03T14:07:05;29.73;47.45
71177;DHT22;58877;51.992;4.504;2022-08-03T14:09:30;29.61;47.53
71177;DHT22;58877;51.992;4.504;2022-08-03T14:11:59;29.96;48.07
71177;DHT22;58877;51.992;4.504;2022-08-03T14:14:31;29.76;47.30
71177;DHT22;58877;51.992;4.504;2022-08-03T14:16:56;29.35;48.21
71177;DHT22;58877;51.992;4.504;2022-08-03T14:19:28;29.54;47.27
71177;DHT22;58877;51.992;4.504;2022-08-03T14:21:53;29.78;47.25
71177;DHT22;58877;51.992;4.504;2022-08-03T14:24:19;29.55;47.19
71177;DHT22;58877;51.992;4.504;2022-08-03T14:26:44;29.42;47.59
71177;DHT22;58877;51.992;4.504;2022-08-03T14:29:13;29.25;48.22
71177;DHT22;58877;51.992;4.504;2022-08-03T14:31:38;29.22;48.06
71177;DHT22;58877;51.992;4.504;2022-08-03T14:34:04;29.38;48.07
71177;DHT22;58877;51.992;4.504;2022-08-03T14:36:29;29.37;48.07
71177;DHT22;58877;51.992;4.504;2022-08-03T14:38:55;29.18;48.96
71177;DHT22;58877;51.992;4.504;2022-08-03T14:41:21;29.48;48.68
71177;DHT22;58877;51.992;4.504;2022-08-03T14:43:46;30.16;47.81
71177;DHT22;58877;51.992;4.504;2022-08-03T14:46:15;30.55;46.41
71177;DHT22;58877;51.992;4.504;2022-08-03T14:48:41;30.15;46.94
71177;DHT22;58877;51.992;4.504;2022-08-03T14:51:08;29.65;48.41
71177;DHT22;58877;51.992;4.504;2022-08-03T14:53:34;30.06;48.42
71177;DHT22;58877;51.992;4.504;2022-08-03T14:56:03;30.06;47.55
71177;DHT22;58877;51.992;4.504;2022-08-03T14:58:28;30.19;47.49
71177;DHT22;58877;51.992;4.504;2022-08-03T15:00:59;30.60;46.51
71177;DHT22;58877;51.992;4.504;2022-08-03T15:03:24;29.98;47.61
71177;DHT22;58877;51.992;4.504;2022-08-03T15:05:55;30.56;46.51
71177;DHT22;58877;51.992;4.504;2022-08-03T15:08:22;31.51;44.50
71177;DHT22;58877;51.992;4.504;2022-08-03T15:10:48;31.51;44.21
71177;DHT22;58877;51.992;4.504;2022-08-03T15:13:25;31.30;43.66
71177;DHT22;58877;51.992;4.504;2022-08-03T15:15:51;31.66;43.13
71177;DHT22;58877;51.992;4.504;2022-08-03T15:18:17;31.30;42.72
71177;DHT22;58877;51.992;4.504;2022-08-03T15:20:42;30.71;43.21
71177;DHT22;58877;51.992;4.504;2022-08-03T15:23:14;30.57;44.18
71177;DHT22;58877;51.992;4.504;2022-08-03T15:26:03;30.64;43.98
71177;DHT22;58877;51.992;4.504;2022-08-03T15:28:31;30.55;44.00
71177;DHT22;58877;51.992;4.504;2022-08-03T15:31:00;30.73;44.26
71177;DHT22;58877;51.992;4.504;2022-08-03T15:33:31;31.18;43.59
71177;DHT22;58877;51.992;4.504;2022-08-03T15:35:59;32.09;41.71
71177;DHT22;58877;51.992;4.504;2022-08-03T15:38:25;32.15;40.76
71177;DHT22;58877;51.992;4.504;2022-08-03T15:40:50;31.66;42.55
71177;DHT22;58877;51.992;4.504;2022-08-03T15:43:22;30.98;43.66
71177;DHT22;58877;51.992;4.504;2022-08-03T15:45:51;32.56;41.24
71177;DHT22;58877;51.992;4.504;2022-08-03T15:48:16;32.29;40.72
71177;DHT22;58877;51.992;4.504;2022-08-03T15:50:44;31.68;41.92
71177;DHT22;58877;51.992;4.504;2022-08-03T15:53:10;31.79;41.54
71177;DHT22;58877;51.992;4.504;2022-08-03T15:55:36;32.19;40.59
71177;DHT22;58877;51.992;4.504;2022-08-03T15:58:04;32.02;41.35
71177;DHT22;58877;51.992;4.504;2022-08-03T16:00:30;31.95;41.55
71177;DHT22;58877;51.992;4.504;2022-08-03T16:02:58;31.24;43.09
71177;DHT22;58877;51.992;4.504;2022-08-03T16:05:30;31.99;42.91
71177;DHT22;58877;51.992;4.504;2022-08-03T16:07:56;31.66;42.31
71177;DHT22;58877;51.992;4.504;2022-08-03T16:10:27;32.52;41.02
71177;DHT22;58877;51.992;4.504;2022-08-03T16:12:57;31.43;43.10
71177;DHT22;58877;51.992;4.504;2022-08-03T16:15:24;31.12;43.71
71177;DHT22;58877;51.992;4.504;2022-08-03T16:17:50;31.22;43.43
71177;DHT22;58877;51.992;4.504;2022-08-03T16:20:16;31.11;43.60
71177;DHT22;58877;51.992;4.504;2022-08-03T16:22:46;30.78;44.39
71177;DHT22;58877;51.992;4.504;2022-08-03T16:25:14;30.61;44.86
71177;DHT22;58877;51.992;4.504;2022-08-03T16:27:41;30.80;44.38
71177;DHT22;58877;51.992;4.504;2022-08-03T16:30:09;31.10;43.93
71177;DHT22;58877;51.992;4.504;2022-08-03T16:32:40;31.82;42.43
71177;DHT22;58877;51.992;4.504;2022-08-03T16:35:06;31.69;42.20
71177;DHT22;58877;51.992;4.504;2022-08-03T16:37:32;31.34;42.76
71177;DHT22;58877;51.992;4.504;2022-08-03T16:39:58;32.13;41.44
71177;DHT22;58877;51.992;4.504;2022-08-03T16:42:23;31.59;42.27